Dawes, West Virginia
Current Conditions -  °F | °C
As of 9:54 AM on Sunday 23 Nov 2014 (Local Time) from KCRW Reporting Station
Broken Clouds Broken Clouds  
Wind Chill: 50°   Ceiling: 30000
Heat Index: 50°   Visibility: 10mi
Dew Point: 34°   Wind: 0mph
Humidity: 54%   Direction: NA
Pressure: 30.04"   Gusts: NA
Location:  38.14°N, 81.45°W
Report Text: KCRW 231454Z 00000KT 10SM FEW050 SCT110 BKN300 10/01 A3004 RMK AO2 SLP174 BKN V OVC T01000011 58014
Loading
Personal Weather Stations






























Interactive Weather Map New forecast layout! Learn more

10-Day Weather Forecast

Advertisements
Track Severe Weather on mobile